Time;durP1;ratioP1;P1;durP2;ratioP2;P2;SDS_P1;SDS_P2;PMS_P1;PMS_P2;Temp;Humidity;BMP_temperature;BMP_pressure;BME280_temperature;BME280_humidity;BME280_pressure;Samples;Min_cycle;Max_cycle;Signal;HPM_P1;HPM_P2
2021/07/20 00:02:20;;;;;;;7.80;6.03;;;;;;;;;;6301888;22;20158;-37
2021/07/20 00:04:46;;;;;;;;;;;;;;;;;;6302232;22;20455;-37
2021/07/20 00:07:11;;;;;;;7.60;5.47;;;;;;;;;;6301650;22;19902;-37
2021/07/20 00:09:36;;;;;;;5.70;5.07;;;;;;;;;;6301683;22;20002;-37
2021/07/20 00:12:02;;;;;;;5.80;4.82;;;;;;;;;;6301951;22;20525;-38
2021/07/20 00:14:27;;;;;;;7.60;4.47;;;;;;;;;;6300841;22;19992;-37
2021/07/20 00:16:52;;;;;;;8.10;5.00;;;;;;;;;;6301401;22;20078;-37
2021/07/20 00:19:17;;;;;;;8.23;5.15;;;;;;;;;;6301657;22;19995;-37
2021/07/20 00:21:43;;;;;;;5.85;5.32;;;;;;;;;;6301518;22;19999;-37
2021/07/20 00:24:10;;;;;;;13.73;4.50;;;;;;;;;;6301830;22;20002;-37
2021/07/20 00:26:35;;;;;;;11.52;5.28;;;;;;;;;;6301605;22;19988;-37
2021/07/20 00:29:00;;;;;;;6.82;6.22;;;;;;;;;;6301609;22;20125;-38
2021/07/20 00:31:26;;;;;;;6.95;5.38;;;;;;;;;;6301361;22;20458;-37
2021/07/20 00:33:51;;;;;;;4.38;3.97;;;;;;;;;;6301441;22;19994;-38
2021/07/20 00:36:16;;;;;;;6.68;5.32;;;;;;;;;;6301837;22;20573;-38
2021/07/20 00:38:42;;;;;;;9.23;5.90;;;;;;;;;;6301467;22;20325;-38
2021/07/20 00:41:07;;;;;;;5.43;4.93;;;;;;;;;;6301046;22;20432;-37
2021/07/20 00:43:33;;;;;;;11.82;4.80;;;;;;;;;;6301749;22;20026;-37
2021/07/20 00:45:58;;;;;;;5.78;4.57;;;;;;;;;;6301277;22;20525;-37
2021/07/20 00:48:24;;;;;;;6.20;4.28;;;;;;;;;;6300798;22;20007;-37
2021/07/20 00:50:49;;;;;;;7.55;5.47;;;;;;;;;;6301482;22;20018;-38
2021/07/20 00:53:15;;;;;;;6.57;4.70;;;;;;;;;;6301562;22;19995;-38
2021/07/20 00:55:40;;;;;;;5.43;3.85;;;;;;;;;;6300962;22;20641;-37
2021/07/20 00:58:09;;;;;;;5.63;5.05;;;;;;;;;;6301622;22;19999;-38
2021/07/20 01:00:35;;;;;;;6.78;4.47;;;;;;;;;;6301148;22;20337;-37
2021/07/20 01:03:00;;;;;;;7.75;4.63;;;;;;;;;;6301573;22;19999;-37
2021/07/20 01:05:26;;;;;;;5.88;5.07;;;;;;;;;;6301399;22;20348;-37
2021/07/20 01:07:52;;;;;;;4.20;3.80;;;;;;;;;;6301068;22;20007;-37
2021/07/20 01:10:18;;;;;;;5.63;4.93;;;;;;;;;;6301466;22;20447;-37
2021/07/20 01:12:44;;;;;;;7.97;5.53;;;;;;;;;;6301193;22;20782;-37
2021/07/20 01:15:11;;;;;;;6.45;5.38;;;;;;;;;;6300924;22;20018;-37
2021/07/20 01:17:37;;;;;;;4.22;3.83;;;;;;;;;;6301505;22;19999;-37
2021/07/20 01:20:07;;;;;;;8.45;5.20;;;;;;;;;;6301282;22;20005;-37
2021/07/20 01:22:33;;;;;;;7.07;4.32;;;;;;;;;;6300874;22;20034;-37
2021/07/20 01:25:00;;;;;;;5.97;5.47;;;;;;;;;;6301599;22;20074;-38
2021/07/20 01:27:25;;;;;;;5.47;4.65;;;;;;;;;;6301209;22;20003;-37
2021/07/20 01:29:51;;;;;;;8.13;5.22;;;;;;;;;;6301014;22;19999;-37
2021/07/20 01:32:17;;;;;;;5.57;4.88;;;;;;;;;;6301184;22;20014;-38
2021/07/20 01:34:44;;;;;;;9.13;4.15;;;;;;;;;;6300969;22;20003;-38
2021/07/20 01:37:11;;;;;;;6.28;5.32;;;;;;;;;;6301523;22;20003;-37
2021/07/20 01:39:36;;;;;;;8.52;4.70;;;;;;;;;;6300803;22;20277;-37
2021/07/20 01:42:03;;;;;;;5.07;4.57;;;;;;;;;;6300965;22;20015;-37
2021/07/20 01:44:28;;;;;;;6.47;5.70;;;;;;;;;;6301282;22;20086;-38
2021/07/20 01:46:54;;;;;;;6.90;5.22;;;;;;;;;;6300843;22;20491;-37
2021/07/20 01:49:19;;;;;;;5.22;4.20;;;;;;;;;;6300895;22;20038;-37
2021/07/20 01:51:45;;;;;;;4.75;4.35;;;;;;;;;;6301051;22;20102;-37
2021/07/20 01:54:11;;;;;;;7.00;5.38;;;;;;;;;;6300956;22;20007;-37
2021/07/20 01:56:38;;;;;;;6.38;4.10;;;;;;;;;;6301109;22;20030;-37
2021/07/20 01:59:03;;;;;;;5.07;4.50;;;;;;;;;;6301101;22;20002;-38
2021/07/20 02:01:32;;;;;;;5.25;3.72;;;;;;;;;;6303223;22;19995;-37
2021/07/20 02:09:24;;;;;;;5.57;4.70;;;;;;;;;;6302698;22;19938;-37
2021/07/20 02:11:49;;;;;;;5.05;4.55;;;;;;;;;;6302694;22;19995;-37
2021/07/20 02:14:16;;;;;;;5.45;4.93;;;;;;;;;;6302183;22;20332;-38
2021/07/20 02:16:45;;;;;;;6.95;6.03;;;;;;;;;;6303182;22;20023;-37
2021/07/20 02:19:17;;;;;;;7.25;5.38;;;;;;;;;;6302497;22;20102;-37
2021/07/20 02:21:47;;;;;;;6.88;5.03;;;;;;;;;;6302412;22;20030;-38
2021/07/20 02:24:15;;;;;;;5.90;5.35;;;;;;;;;;6302744;22;20003;-38
2021/07/20 02:26:41;;;;;;;4.85;4.22;;;;;;;;;;6302611;22;20052;-37
2021/07/20 02:29:06;;;;;;;5.68;5.10;;;;;;;;;;6302325;22;20454;-38
2021/07/20 02:31:33;;;;;;;5.78;5.05;;;;;;;;;;6302706;22;19999;-37
2021/07/20 02:34:00;;;;;;;5.35;4.70;;;;;;;;;;6302689;22;20031;-38
2021/07/20 02:36:26;;;;;;;5.28;4.78;;;;;;;;;;6302537;22;20003;-38
2021/07/20 02:38:51;;;;;;;6.00;5.10;;;;;;;;;;6303002;22;19995;-37
2021/07/20 02:41:17;;;;;;;13.27;5.57;;;;;;;;;;6302684;22;20010;-37
2021/07/20 02:43:44;;;;;;;7.85;6.20;;;;;;;;;;6302863;22;20082;-38
2021/07/20 02:46:11;;;;;;;6.68;4.78;;;;;;;;;;6302096;22;19991;-38
2021/07/20 02:48:40;;;;;;;5.72;5.20;;;;;;;;;;6302467;22;20078;-37
2021/07/20 02:51:06;;;;;;;6.15;5.10;;;;;;;;;;6302416;22;20000;-37
2021/07/20 02:53:31;;;;;;;5.43;4.85;;;;;;;;;;6302517;22;20009;-38
2021/07/20 02:55:58;;;;;;;4.97;4.47;;;;;;;;;;6302702;22;20336;-38
2021/07/20 02:58:24;;;;;;;4.93;4.35;;;;;;;;;;6302011;22;19991;-38
2021/07/20 03:00:50;;;;;;;5.72;5.03;;;;;;;;;;6302296;22;20003;-37
2021/07/20 03:03:15;;;;;;;4.32;3.92;;;;;;;;;;6302802;22;20021;-38
2021/07/20 03:05:41;;;;;;;6.13;5.05;;;;;;;;;;6302216;22;20446;-38
2021/07/20 03:08:08;;;;;;;5.57;5.05;;;;;;;;;;6302334;22;20011;-38
2021/07/20 03:10:34;;;;;;;9.85;5.38;;;;;;;;;;6301750;22;19999;-37
2021/07/20 03:13:03;;;;;;;5.25;4.10;;;;;;;;;;6302029;22;19991;-37
2021/07/20 03:15:29;;;;;;;4.82;4.32;;;;;;;;;;6301559;22;20015;-37
2021/07/20 03:17:54;;;;;;;5.43;4.93;;;;;;;;;;6301937;22;19998;-38
2021/07/20 03:20:20;;;;;;;5.55;4.93;;;;;;;;;;6302263;22;20421;-37
2021/07/20 03:22:46;;;;;;;6.15;4.78;;;;;;;;;;6302299;22;19999;-38
2021/07/20 03:25:13;;;;;;;7.35;4.97;;;;;;;;;;6301920;22;19995;-37
2021/07/20 03:27:39;;;;;;;4.75;4.05;;;;;;;;;;6301845;22;20074;-37
2021/07/20 03:30:05;;;;;;;5.03;4.38;;;;;;;;;;6301657;22;19998;-37
2021/07/20 03:32:31;;;;;;;5.00;4.22;;;;;;;;;;6301961;22;20038;-37
2021/07/20 03:34:57;;;;;;;5.38;4.88;;;;;;;;;;6302287;22;20007;-37
2021/07/20 03:37:23;;;;;;;6.32;3.83;;;;;;;;;;6301827;22;20081;-37
2021/07/20 03:39:51;;;;;;;5.32;4.57;;;;;;;;;;6301940;22;20049;-37
2021/07/20 03:42:18;;;;;;;4.97;4.47;;;;;;;;;;6302043;22;20454;-37
2021/07/20 03:44:43;;;;;;;5.65;5.00;;;;;;;;;;6301805;22;20082;-38
2021/07/20 03:47:08;;;;;;;5.93;5.38;;;;;;;;;;6301802;22;20033;-37
2021/07/20 03:49:34;;;;;;;5.75;5.00;;;;;;;;;;6301835;22;20011;-38
2021/07/20 03:52:01;;;;;;;6.30;5.55;;;;;;;;;;6301461;22;20361;-38
2021/07/20 03:54:28;;;;;;;9.18;7.35;;;;;;;;;;6301614;22;20285;-38
2021/07/20 03:56:55;;;;;;;6.90;4.72;;;;;;;;;;6301828;22;20071;-38
2021/07/20 03:59:20;;;;;;;5.53;4.63;;;;;;;;;;6301567;22;19999;-37
2021/07/20 04:01:47;;;;;;;6.72;6.03;;;;;;;;;;6301935;22;20455;-37
2021/07/20 04:04:14;;;;;;;7.75;5.28;;;;;;;;;;6301739;22;19999;-38
2021/07/20 04:06:39;;;;;;;5.72;4.22;;;;;;;;;;6301560;22;19998;-38
2021/07/20 04:09:05;;;;;;;5.50;5.00;;;;;;;;;;6301740;22;19999;-38
2021/07/20 04:11:33;;;;;;;6.10;5.43;;;;;;;;;;6301566;22;20004;-37
2021/07/20 04:13:58;;;;;;;6.25;4.07;;;;;;;;;;6301875;22;20006;-37
2021/07/20 04:16:25;;;;;;;7.57;5.88;;;;;;;;;;6300970;22;20027;-37
2021/07/20 04:18:50;;;;;;;5.68;4.60;;;;;;;;;;6301369;22;20014;-38
2021/07/20 04:21:16;;;;;;;5.95;4.60;;;;;;;;;;6301874;22;19995;-37
2021/07/20 04:23:41;;;;;;;6.28;5.22;;;;;;;;;;6300883;22;20127;-38
2021/07/20 04:26:07;;;;;;;5.80;4.82;;;;;;;;;;6301055;22;20004;-37
2021/07/20 04:28:33;;;;;;;7.05;6.35;;;;;;;;;;6301295;22;20007;-37
2021/07/20 04:30:59;;;;;;;8.18;6.22;;;;;;;;;;6301332;22;20033;-37
2021/07/20 04:33:28;;;;;;;6.30;5.75;;;;;;;;;;6301131;22;20424;-37
2021/07/20 04:35:56;;;;;;;5.70;5.20;;;;;;;;;;6301679;22;20007;-37
2021/07/20 04:38:22;;;;;;;6.35;5.85;;;;;;;;;;6301638;22;19995;-37
2021/07/20 04:40:47;;;;;;;6.22;5.68;;;;;;;;;;6301174;22;20396;-37
2021/07/20 04:43:13;;;;;;;5.80;4.60;;;;;;;;;;6301874;22;20002;-37
2021/07/20 04:45:40;;;;;;;7.22;5.47;;;;;;;;;;6301674;22;20086;-38
2021/07/20 04:48:06;;;;;;;9.55;4.80;;;;;;;;;;6301741;22;20003;-38
2021/07/20 04:50:31;;;;;;;7.95;5.28;;;;;;;;;;6301291;22;20006;-38
2021/07/20 04:52:59;;;;;;;5.57;5.05;;;;;;;;;;6301796;22;20015;-38
2021/07/20 04:55:25;;;;;;;5.50;4.97;;;;;;;;;;6301320;22;20034;-38
2021/07/20 04:57:51;;;;;;;6.25;5.57;;;;;;;;;;6301420;22;20069;-37
2021/07/20 05:00:17;;;;;;;8.45;6.35;;;;;;;;;;6301170;22;20352;-38
2021/07/20 05:02:45;;;;;;;6.45;5.80;;;;;;;;;;6301416;22;19995;-37
2021/07/20 05:05:13;;;;;;;6.18;5.35;;;;;;;;;;6301525;22;20495;-38
2021/07/20 05:07:39;;;;;;;5.78;5.18;;;;;;;;;;6301179;22;20006;-37
2021/07/20 05:10:04;;;;;;;7.18;6.38;;;;;;;;;;6301176;22;20428;-37
2021/07/20 05:12:31;;;;;;;6.93;6.18;;;;;;;;;;6301175;22;19995;-37
2021/07/20 05:14:56;;;;;;;8.20;6.47;;;;;;;;;;6300596;22;20023;-38
2021/07/20 05:17:22;;;;;;;8.98;5.97;;;;;;;;;;6301008;22;20083;-37
2021/07/20 05:19:47;;;;;;;7.47;5.05;;;;;;;;;;6300879;22;20007;-37
2021/07/20 05:22:14;;;;;;;7.32;6.35;;;;;;;;;;6301203;22;20077;-37
2021/07/20 05:24:39;;;;;;;6.38;4.78;;;;;;;;;;6300813;22;20006;-37
2021/07/20 05:27:05;;;;;;;6.32;5.72;;;;;;;;;;6300828;22;19999;-38
2021/07/20 05:29:30;;;;;;;7.03;6.32;;;;;;;;;;6301156;22;20061;-37
2021/07/20 05:31:56;;;;;;;6.95;5.88;;;;;;;;;;6301110;22;20482;-38
2021/07/20 05:34:22;;;;;;;5.65;4.45;;;;;;;;;;6301441;22;20003;-37
2021/07/20 05:36:47;;;;;;;7.32;6.25;;;;;;;;;;6302930;22;19999;-37
2021/07/20 05:39:13;;;;;;;5.55;5.05;;;;;;;;;;6302969;22;20072;-37
2021/07/20 05:41:39;;;;;;;8.73;6.25;;;;;;;;;;6302757;22;20417;-38
2021/07/20 05:44:05;;;;;;;8.38;5.15;;;;;;;;;;6303011;22;19996;-38
2021/07/20 05:46:31;;;;;;;7.45;6.75;;;;;;;;;;6302774;22;20541;-38
2021/07/20 05:48:57;;;;;;;8.55;6.88;;;;;;;;;;6303084;22;19999;-38
2021/07/20 05:51:23;;;;;;;8.27;5.57;;;;;;;;;;6303072;22;20006;-38
2021/07/20 05:53:48;;;;;;;24.67;6.95;;;;;;;;;;6302726;22;20082;-37
2021/07/20 05:56:14;;;;;;;8.73;5.90;;;;;;;;;;6302606;22;20069;-37
2021/07/20 05:58:43;;;;;;;12.68;9.95;;;;;;;;;;6303302;22;19995;-37
2021/07/20 06:01:09;;;;;;;10.75;6.78;;;;;;;;;;6303057;22;20003;-38
2021/07/20 06:03:35;;;;;;;11.15;6.82;;;;;;;;;;6302689;22;20501;-38
2021/07/20 06:06:02;;;;;;;9.18;6.40;;;;;;;;;;6303013;22;20003;-37
2021/07/20 06:08:28;;;;;;;5.65;4.63;;;;;;;;;;6302987;22;20003;-37
2021/07/20 06:10:54;;;;;;;17.35;6.88;;;;;;;;;;6302963;22;20076;-38
2021/07/20 06:13:20;;;;;;;8.50;6.15;;;;;;;;;;6302844;22;20045;-38
2021/07/20 06:15:47;;;;;;;8.55;7.80;;;;;;;;;;6302330;22;20019;-38
2021/07/20 06:18:12;;;;;;;6.97;6.28;;;;;;;;;;6302960;22;20000;-37
2021/07/20 06:20:38;;;;;;;7.05;6.35;;;;;;;;;;6302762;22;20375;-38
2021/07/20 06:23:05;;;;;;;11.40;8.48;;;;;;;;;;6302777;22;20019;-38
2021/07/20 06:25:31;;;;;;;23.20;14.88;;;;;;;;;;6302718;22;20429;-37
2021/07/20 06:27:57;;;;;;;16.98;13.50;;;;;;;;;;6302357;22;20010;-38
2021/07/20 06:30:22;;;;;;;20.40;12.82;;;;;;;;;;6302039;22;20003;-37
2021/07/20 06:32:48;;;;;;;35.97;18.08;;;;;;;;;;6302144;22;19999;-38
2021/07/20 06:35:15;;;;;;;21.75;13.82;;;;;;;;;;6302278;22;19999;-38
2021/07/20 06:37:47;;;;;;;13.57;10.57;;;;;;;;;;6302436;22;20037;-37
2021/07/20 06:40:13;;;;;;;30.20;25.65;;;;;;;;;;6301951;22;20507;-38
2021/07/20 06:42:39;;;;;;;44.75;30.98;;;;;;;;;;6302532;22;19999;-37
2021/07/20 06:45:05;;;;;;;46.55;32.05;;;;;;;;;;6302265;22;19999;-38
2021/07/20 06:47:34;;;;;;;33.53;24.70;;;;;;;;;;6301576;22;20007;-37
2021/07/20 06:50:04;;;;;;;31.20;20.27;;;;;;;;;;6302229;22;20391;-37
2021/07/20 06:52:29;;;;;;;28.13;14.40;;;;;;;;;;6302277;22;20006;-38
2021/07/20 06:54:55;;;;;;;20.30;14.52;;;;;;;;;;6301747;22;20039;-38
2021/07/20 06:57:20;;;;;;;324.23;78.82;;;;;;;;;;6302508;22;19996;-37
2021/07/20 06:59:46;;;;;;;42.05;17.05;;;;;;;;;;6301733;22;20000;-37
2021/07/20 07:02:16;;;;;;;28.50;16.98;;;;;;;;;;6302458;22;19999;-38
2021/07/20 07:04:46;;;;;;;47.33;29.20;;;;;;;;;;6301984;22;20133;-37
2021/07/20 07:07:12;;;;;;;56.60;36.38;;;;;;;;;;6302024;22;19996;-38
2021/07/20 07:09:39;;;;;;;53.72;34.97;;;;;;;;;;6301577;22;20015;-38
2021/07/20 07:12:04;;;;;;;47.58;35.00;;;;;;;;;;6301832;22;20006;-38
2021/07/20 07:14:30;;;;;;;49.03;35.33;;;;;;;;;;6302028;22;20003;-38
2021/07/20 07:16:56;;;;;;;37.97;29.88;;;;;;;;;;6302170;22;20018;-38
2021/07/20 07:19:22;;;;;;;31.35;24.98;;;;;;;;;;6301776;22;19995;-37
2021/07/20 07:21:48;;;;;;;31.38;23.88;;;;;;;;;;6302184;22;20006;-37
2021/07/20 07:24:17;;;;;;;30.35;20.70;;;;;;;;;;6302367;22;20067;-37
2021/07/20 07:26:44;;;;;;;35.70;21.85;;;;;;;;;;6302185;22;20111;-38
2021/07/20 07:29:09;;;;;;;27.05;16.40;;;;;;;;;;6301565;22;20082;-37
2021/07/20 07:31:35;;;;;;;25.52;16.88;;;;;;;;;;6301925;22;20074;-38
2021/07/20 07:34:01;;;;;;;13.95;10.95;;;;;;;;;;6301521;22;20443;-37
2021/07/20 07:36:27;;;;;;;13.48;10.88;;;;;;;;;;6301722;22;20482;-41
2021/07/20 07:38:54;;;;;;;13.27;10.60;;;;;;;;;;6301782;22;20010;-40
2021/07/20 07:41:20;;;;;;;27.08;11.50;;;;;;;;;;6301608;22;19987;-42
2021/07/20 07:43:46;;;;;;;12.93;10.25;;;;;;;;;;6301723;22;20026;-37
2021/07/20 07:46:11;;;;;;;15.07;7.93;;;;;;;;;;6301512;22;20491;-37
2021/07/20 07:48:38;;;;;;;13.43;7.00;;;;;;;;;;6301113;22;20101;-37
2021/07/20 07:51:04;;;;;;;12.50;8.65;;;;;;;;;;6301829;22;20003;-38
2021/07/20 07:53:30;;;;;;;13.10;8.25;;;;;;;;;;6301903;22;20332;-38
2021/07/20 07:55:56;;;;;;;18.10;11.93;;;;;;;;;;6301666;22;20433;-38
2021/07/20 07:58:22;;;;;;;18.75;9.50;;;;;;;;;;6301256;22;19998;-37
2021/07/20 08:00:48;;;;;;;11.30;7.97;;;;;;;;;;6301265;22;20000;-38
2021/07/20 08:03:16;;;;;;;9.60;8.25;;;;;;;;;;6302027;22;20018;-37
2021/07/20 08:05:42;;;;;;;11.43;8.70;;;;;;;;;;6301567;22;20267;-38
2021/07/20 08:08:08;;;;;;;15.07;12.57;;;;;;;;;;6301214;22;19999;-37
2021/07/20 08:10:34;;;;;;;16.88;10.23;;;;;;;;;;6301643;22;19995;-37
2021/07/20 08:13:00;;;;;;;14.30;8.43;;;;;;;;;;6302009;22;20344;-38
2021/07/20 08:15:25;;;;;;;21.25;10.63;;;;;;;;;;6301092;22;20015;-38
2021/07/20 08:17:52;;;;;;;13.07;8.68;;;;;;;;;;6301296;22;20358;-37
2021/07/20 08:20:19;;;;;;;13.88;10.50;;;;;;;;;;6301713;22;20080;-38
2021/07/20 08:22:45;;;;;;;10.52;8.40;;;;;;;;;;6301509;22;20029;-37
2021/07/20 08:25:12;;;;;;;11.85;8.10;;;;;;;;;;6301787;22;20049;-38
2021/07/20 08:27:44;;;;;;;20.83;11.50;;;;;;;;;;6301024;22;20003;-37
2021/07/20 08:30:09;;;;;;;10.10;8.40;;;;;;;;;;6301331;22;20011;-37
2021/07/20 08:32:41;;;;;;;11.02;8.13;;;;;;;;;;6301424;22;20064;-38
2021/07/20 08:35:09;;;;;;;7.65;6.80;;;;;;;;;;6301834;22;20171;-37
2021/07/20 08:37:38;;;;;;;11.13;5.93;;;;;;;;;;6301662;22;20566;-37
2021/07/20 08:40:13;;;;;;;6.80;4.47;;;;;;;;;;6300951;22;20439;-38
2021/07/20 08:42:44;;;;;;;6.47;5.68;;;;;;;;;;6301616;22;20003;-38
2021/07/20 08:45:25;;;;;;;10.20;5.75;;;;;;;;;;6300931;22;19999;-38
2021/07/20 08:47:53;;;;;;;6.35;5.10;;;;;;;;;;6301128;22;19995;-38
2021/07/20 08:50:27;;;;;;;6.95;4.88;;;;;;;;;;6301273;22;20038;-37
2021/07/20 08:53:05;;;;;;;9.18;5.20;;;;;;;;;;6301133;22;19999;-37
2021/07/20 08:55:33;;;;;;;5.25;3.97;;;;;;;;;;6301271;22;19999;-38
2021/07/20 08:58:01;;;;;;;8.68;5.65;;;;;;;;;;6301423;22;20408;-38
2021/07/20 09:00:31;;;;;;;9.80;4.45;;;;;;;;;;6301272;22;20390;-37
2021/07/20 09:03:08;;;;;;;8.57;6.35;;;;;;;;;;6301740;22;19999;-38
2021/07/20 09:05:50;;;;;;;3.83;3.42;;;;;;;;;;6300824;22;20052;-37
2021/07/20 09:08:34;;;;;;;6.43;4.88;;;;;;;;;;6301125;22;20433;-37
2021/07/20 09:11:15;;;;;;;5.90;4.10;;;;;;;;;;6301166;22;20003;-38
2021/07/20 09:13:46;;;;;;;9.95;5.00;;;;;;;;;;6301666;22;20006;-37
2021/07/20 09:16:11;;;;;;;;;;;;;;;;;;6301298;22;20015;-37
2021/07/20 09:18:49;;;;;;;5.47;4.53;;;;;;;;;;6300840;22;19918;-38
2021/07/20 09:21:16;;;;;;;7.30;4.97;;;;;;;;;;6300891;22;20070;-38
2021/07/20 09:23:48;;;;;;;8.50;5.20;;;;;;;;;;6301102;22;20002;-37
2021/07/20 09:26:21;;;;;;;6.35;4.05;;;;;;;;;;6301311;22;20007;-38
2021/07/20 09:28:57;;;;;;;5.35;3.75;;;;;;;;;;6301297;22;20024;-38
2021/07/20 09:31:41;;;;;;;4.75;4.07;;;;;;;;;;6301180;22;20003;-37
2021/07/20 09:34:06;;;;;;;12.88;4.00;;;;;;;;;;6300875;22;20078;-37
2021/07/20 09:36:44;;;;;;;4.72;3.92;;;;;;;;;;6301153;22;20023;-38
2021/07/20 09:39:09;;;;;;;10.00;4.65;;;;;;;;;;6300851;22;20007;-37
2021/07/20 09:41:51;;;;;;;4.85;3.75;;;;;;;;;;6301245;22;20002;-38
2021/07/20 09:44:21;;;;;;;8.05;3.83;;;;;;;;;;6301139;22;20052;-38
2021/07/20 09:47:06;;;;;;;4.23;3.83;;;;;;;;;;6300541;22;19991;-38
2021/07/20 09:49:44;;;;;;;6.85;6.15;;;;;;;;;;6300633;22;20178;-39
2021/07/20 09:52:21;;;;;;;3.38;2.85;;;;;;;;;;6300801;22;20424;-36
2021/07/20 09:54:47;;;;;;;8.73;4.72;;;;;;;;;;6300874;22;19999;-36
2021/07/20 09:57:31;;;;;;;6.60;5.10;;;;;;;;;;6300873;22;20165;-35
2021/07/20 10:00:05;;;;;;;7.57;3.28;;;;;;;;;;6300871;22;20229;-34
2021/07/20 10:02:39;;;;;;;4.53;4.03;;;;;;;;;;6300603;22;19996;-35
2021/07/20 10:05:10;;;;;;;3.40;3.03;;;;;;;;;;6300548;22;20027;-35
2021/07/20 10:07:47;;;;;;;7.97;3.88;;;;;;;;;;6300891;22;20066;-35
2021/07/20 10:10:22;;;;;;;4.07;3.22;;;;;;;;;;6300631;22;20003;-35
2021/07/20 10:12:51;;;;;;;5.72;4.60;;;;;;;;;;6300889;22;20003;-35
2021/07/20 10:15:19;;;;;;;9.18;3.38;;;;;;;;;;6300258;22;20072;-38
2021/07/20 10:18:04;;;;;;;6.22;4.90;;;;;;;;;;6301014;22;20074;-38
2021/07/20 10:20:43;;;;;;;6.25;4.68;;;;;;;;;;6299903;22;20030;-37
2021/07/20 10:23:17;;;;;;;11.75;4.63;;;;;;;;;;6302402;22;20003;-38
2021/07/20 10:25:42;;;;;;;3.33;2.85;;;;;;;;;;6302446;22;20099;-38
2021/07/20 10:28:10;;;;;;;7.20;4.90;;;;;;;;;;6302169;22;20444;-38
2021/07/20 10:30:38;;;;;;;5.10;3.08;;;;;;;;;;6302738;22;20292;-38
2021/07/20 10:33:12;;;;;;;3.63;3.33;;;;;;;;;;6302037;22;20049;-38
2021/07/20 10:35:40;;;;;;;4.03;2.63;;;;;;;;;;6302324;22;20026;-38
2021/07/20 10:38:08;;;;;;;6.70;3.97;;;;;;;;;;6301834;22;19995;-38
2021/07/20 10:40:34;;;;;;;30.58;3.85;;;;;;;;;;6301757;22;20428;-38
2021/07/20 10:43:03;;;;;;;3.63;2.20;;;;;;;;;;6302003;22;20003;-37
2021/07/20 10:45:33;;;;;;;3.20;2.88;;;;;;;;;;6301966;22;20073;-37
2021/07/20 10:48:01;;;;;;;5.15;3.38;;;;;;;;;;6302734;22;19999;-37
2021/07/20 10:50:45;;;;;;;3.63;2.85;;;;;;;;;;6302441;22;20068;-37
2021/07/20 10:53:17;;;;;;;5.38;3.50;;;;;;;;;;6302414;22;20302;-38
2021/07/20 10:55:53;;;;;;;17.40;3.22;;;;;;;;;;6301620;22;20011;-38
2021/07/20 10:58:27;;;;;;;8.73;5.53;;;;;;;;;;6302167;22;20502;-38
2021/07/20 11:01:05;;;;;;;5.30;4.25;;;;;;;;;;6302584;22;20003;-38
2021/07/20 11:03:49;;;;;;;5.15;4.28;;;;;;;;;;6302314;22;20003;-38
2021/07/20 11:06:16;;;;;;;14.38;4.75;;;;;;;;;;6302257;22;20430;-38
2021/07/20 11:08:44;;;;;;;5.95;3.92;;;;;;;;;;6302742;22;19995;-38
2021/07/20 11:11:14;;;;;;;5.50;3.83;;;;;;;;;;6302325;22;20041;-39
2021/07/20 11:13:41;;;;;;;7.45;4.10;;;;;;;;;;6301684;22;19995;-37
2021/07/20 11:16:07;;;;;;;9.90;4.57;;;;;;;;;;6301477;22;20123;-40
2021/07/20 11:18:38;;;;;;;5.40;3.42;;;;;;;;;;6301776;22;20002;-38
2021/07/20 11:21:06;;;;;;;6.50;4.05;;;;;;;;;;6301754;22;19999;-38
2021/07/20 11:23:33;;;;;;;6.95;2.80;;;;;;;;;;6302337;22;19995;-38
2021/07/20 11:25:59;;;;;;;4.00;3.28;;;;;;;;;;6302265;22;20062;-38
2021/07/20 11:28:25;;;;;;;3.67;3.03;;;;;;;;;;6301980;22;19995;-38
2021/07/20 11:30:54;;;;;;;5.72;4.43;;;;;;;;;;6301722;22;20426;-38
2021/07/20 11:33:26;;;;;;;6.47;4.95;;;;;;;;;;6301634;22;20037;-38
2021/07/20 11:35:55;;;;;;;9.05;4.95;;;;;;;;;;6302142;22;20006;-38
2021/07/20 11:38:21;;;;;;;6.78;3.42;;;;;;;;;;6301750;22;20416;-37
2021/07/20 11:41:02;;;;;;;5.95;3.38;;;;;;;;;;6301810;22;20044;-38
2021/07/20 11:43:32;;;;;;;5.95;4.75;;;;;;;;;;6302130;22;19995;-38
2021/07/20 11:46:04;;;;;;;8.90;4.00;;;;;;;;;;6301406;22;20003;-38
2021/07/20 11:48:33;;;;;;;9.88;5.05;;;;;;;;;;6301602;22;20026;-38
2021/07/20 11:51:06;;;;;;;7.70;3.75;;;;;;;;;;6301590;22;20003;-38
2021/07/20 11:53:50;;;;;;;5.15;3.83;;;;;;;;;;6301425;22;19999;-38
2021/07/20 11:56:35;;;;;;;16.15;4.28;;;;;;;;;;6301837;22;20000;-38
2021/07/20 11:59:16;;;;;;;9.40;5.38;;;;;;;;;;6301118;22;19995;-38
2021/07/20 12:01:41;;;;;;;5.07;3.78;;;;;;;;;;6301490;22;20462;-39
2021/07/20 12:04:06;;;;;;;4.75;3.78;;;;;;;;;;6301891;22;19987;-38
2021/07/20 12:06:43;;;;;;;3.00;2.80;;;;;;;;;;6301927;22;20076;-37
2021/07/20 12:09:27;;;;;;;4.82;4.25;;;;;;;;;;6301470;22;20208;-38
2021/07/20 12:11:53;;;;;;;10.60;4.35;;;;;;;;;;6301739;22;20324;-38
2021/07/20 12:14:19;;;;;;;4.82;3.63;;;;;;;;;;6301498;22;20110;-37
2021/07/20 12:16:46;;;;;;;7.57;3.33;;;;;;;;;;6301563;22;20014;-37
2021/07/20 12:19:12;;;;;;;6.65;4.72;;;;;;;;;;6301563;22;20002;-37
2021/07/20 12:21:39;;;;;;;4.95;3.55;;;;;;;;;;6301336;22;20006;-37
2021/07/20 12:24:06;;;;;;;4.65;3.92;;;;;;;;;;6301864;22;20003;-37
2021/07/20 12:26:31;;;;;;;3.75;2.40;;;;;;;;;;6301707;22;20010;-37
2021/07/20 12:28:57;;;;;;;3.30;2.95;;;;;;;;;;6301051;22;20024;-37
2021/07/20 12:31:27;;;;;;;4.65;2.90;;;;;;;;;;6301206;22;20011;-40
2021/07/20 12:33:53;;;;;;;2.93;2.73;;;;;;;;;;6300633;22;20003;-37
2021/07/20 12:36:19;;;;;;;5.63;3.75;;;;;;;;;;6301188;22;20432;-36
2021/07/20 12:38:44;;;;;;;3.75;3.22;;;;;;;;;;6301234;22;20003;-36
2021/07/20 12:41:11;;;;;;;3.15;2.80;;;;;;;;;;6301462;22;20443;-38
2021/07/20 12:43:43;;;;;;;4.13;3.35;;;;;;;;;;6300692;22;19999;-38
2021/07/20 12:46:13;;;;;;;5.05;3.17;;;;;;;;;;6301075;22;20002;-37
2021/07/20 12:48:45;;;;;;;3.90;3.17;;;;;;;;;;6301628;22;20106;-38
2021/07/20 12:51:11;;;;;;;6.18;4.38;;;;;;;;;;6301859;22;20214;-38
2021/07/20 12:53:44;;;;;;;4.05;3.40;;;;;;;;;;6301364;22;19999;-37
2021/07/20 12:56:10;;;;;;;7.65;3.55;;;;;;;;;;6300947;22;19999;-38
2021/07/20 12:58:36;;;;;;;6.13;4.88;;;;;;;;;;6300909;22;20006;-38
2021/07/20 13:01:02;;;;;;;4.40;2.97;;;;;;;;;;6300573;22;20000;-38
2021/07/20 13:03:27;;;;;;;6.05;3.85;;;;;;;;;;6301311;22;20010;-38
2021/07/20 13:05:53;;;;;;;4.70;3.30;;;;;;;;;;6301483;22;20003;-38
2021/07/20 13:08:18;;;;;;;5.25;4.22;;;;;;;;;;6301231;22;19995;-38
2021/07/20 13:10:45;;;;;;;4.50;3.38;;;;;;;;;;6301201;22;20014;-38
2021/07/20 13:13:10;;;;;;;4.25;3.33;;;;;;;;;;6300963;22;20002;-38
2021/07/20 13:15:35;;;;;;;6.28;4.43;;;;;;;;;;6300682;22;20011;-38
2021/07/20 13:18:01;;;;;;;4.20;3.40;;;;;;;;;;6301549;22;19995;-37
2021/07/20 13:20:28;;;;;;;3.70;3.03;;;;;;;;;;6301032;22;20082;-38
2021/07/20 13:22:54;;;;;;;3.60;3.17;;;;;;;;;;6300864;22;20372;-38
2021/07/20 13:25:20;;;;;;;5.57;3.70;;;;;;;;;;6301463;22;20014;-37
2021/07/20 13:27:46;;;;;;;4.63;3.55;;;;;;;;;;6300932;22;20052;-38
2021/07/20 13:30:18;;;;;;;5.22;3.33;;;;;;;;;;6300887;22;19999;-37
2021/07/20 13:32:45;;;;;;;8.65;4.97;;;;;;;;;;6300464;22;20006;-38
2021/07/20 13:35:10;;;;;;;8.63;4.25;;;;;;;;;;6300950;22;19995;-38
2021/07/20 13:37:36;;;;;;;8.80;3.85;;;;;;;;;;6300910;22;20003;-38
2021/07/20 13:40:06;;;;;;;3.78;3.22;;;;;;;;;;6301343;22;20003;-38
2021/07/20 13:42:32;;;;;;;4.90;4.10;;;;;;;;;;6301244;22;20017;-37
2021/07/20 13:44:59;;;;;;;4.43;3.65;;;;;;;;;;6300790;22;20424;-38
2021/07/20 13:47:26;;;;;;;4.05;3.53;;;;;;;;;;6300933;22;20045;-38
2021/07/20 13:49:53;;;;;;;3.22;2.35;;;;;;;;;;6301147;22;20003;-38
2021/07/20 13:52:20;;;;;;;5.25;3.70;;;;;;;;;;6301069;22;20133;-38
2021/07/20 13:54:47;;;;;;;8.38;4.85;;;;;;;;;;6300509;22;20010;-37
2021/07/20 13:57:13;;;;;;;5.07;3.78;;;;;;;;;;6302690;22;19999;-38
2021/07/20 13:59:40;;;;;;;5.78;4.18;;;;;;;;;;6302450;22;19996;-38
2021/07/20 14:02:05;;;;;;;5.10;4.60;;;;;;;;;;6302141;22;19992;-38
2021/07/20 14:04:31;;;;;;;9.95;3.85;;;;;;;;;;6302599;22;20072;-37
2021/07/20 14:06:56;;;;;;;5.13;4.00;;;;;;;;;;6302931;22;19999;-38
2021/07/20 14:09:23;;;;;;;3.05;2.35;;;;;;;;;;6302795;22;19999;-38
2021/07/20 14:11:49;;;;;;;4.43;3.38;;;;;;;;;;6302103;22;20002;-38
2021/07/20 14:14:14;;;;;;;5.25;4.07;;;;;;;;;;6302973;22;19995;-37
2021/07/20 14:16:41;;;;;;;5.68;4.38;;;;;;;;;;6302316;22;20015;-38
2021/07/20 14:19:08;;;;;;;5.75;4.38;;;;;;;;;;6302609;22;19996;-38
2021/07/20 14:21:35;;;;;;;8.02;2.67;;;;;;;;;;6302474;22;20069;-38
2021/07/20 14:24:07;;;;;;;6.00;4.05;;;;;;;;;;6303066;22;19995;-38
2021/07/20 14:26:39;;;;;;;4.63;4.22;;;;;;;;;;6302790;22;20300;-37
2021/07/20 14:29:09;;;;;;;4.70;3.40;;;;;;;;;;6302555;22;20004;-37
2021/07/20 14:31:35;;;;;;;6.90;4.05;;;;;;;;;;6302018;22;20392;-38
2021/07/20 14:34:01;;;;;;;3.22;2.80;;;;;;;;;;6302211;22;20007;-38
2021/07/20 14:36:39;;;;;;;5.13;3.88;;;;;;;;;;6302045;22;20007;-38
2021/07/20 14:39:05;;;;;;;4.93;3.63;;;;;;;;;;6302342;22;20487;-38
2021/07/20 14:41:31;;;;;;;5.07;4.47;;;;;;;;;;6302550;22;20000;-38
2021/07/20 14:43:58;;;;;;;5.60;4.60;;;;;;;;;;6302609;22;20407;-37
2021/07/20 14:46:38;;;;;;;4.35;3.13;;;;;;;;;;6302343;22;19995;-38
2021/07/20 14:49:04;;;;;;;4.32;2.85;;;;;;;;;;6302185;22;19999;-38
2021/07/20 14:51:33;;;;;;;9.15;3.35;;;;;;;;;;6301731;22;20003;-37